TimeCST,TemperatureF,Dew PointF,Humidity,Sea Level PressureIn,VisibilityMPH,Wind Direction,Wind SpeedMPH,Gust SpeedMPH,PrecipitationIn,Events,Conditions,WindDirDegrees,DateUTC
1:52 AM,18.0,14.0,84,30.32,6.0,Calm,Calm,-,N/A,,Partly Cloudy,0,2013-01-03 07:52:00
2:52 AM,17.1,15.1,92,30.34,7.0,NNW,4.6,-,N/A,,Clear,330,2013-01-03 08:52:00
3:52 AM,16.0,14.0,92,30.36,6.0,Calm,Calm,-,N/A,,Clear,0,2013-01-03 09:52:00
4:52 AM,16.0,12.9,88,30.38,8.0,Calm,Calm,-,N/A,,Clear,0,2013-01-03 10:52:00
5:52 AM,15.1,10.9,84,30.40,8.0,Calm,Calm,-,N/A,,Clear,0,2013-01-03 11:52:00
6:52 AM,14.0,10.9,88,30.42,7.0,Calm,Calm,-,N/A,,Clear,0,2013-01-03 12:52:00
7:15 AM,12.2,8.6,85,30.38,7.0,Calm,Calm,-,N/A,,Scattered Clouds,0,2013-01-03 13:15:00
7:28 AM,14.0,10.4,86,30.39,7.0,Calm,Calm,-,N/A,,Mostly Cloudy,0,2013-01-03 13:28:00
7:52 AM,14.0,10.0,84,30.43,7.0,Calm,Calm,-,N/A,,Mostly Cloudy,0,2013-01-03 13:52:00
7:59 AM,14.0,10.4,86,30.40,7.0,Calm,Calm,-,N/A,,Partly Cloudy,0,2013-01-03 13:59:00
8:52 AM,24.1,21.0,88,30.45,6.0,Calm,Calm,-,N/A,,Clear,0,2013-01-03 14:52:00
9:52 AM,30.9,26.1,82,30.47,10.0,NW,3.5,-,N/A,,Clear,320,2013-01-03 15:52:00
10:52 AM,37.0,27.0,67,30.48,10.0,Calm,Calm,-,N/A,,Clear,0,2013-01-03 16:52:00
11:52 AM,39.9,25.0,55,30.45,10.0,WNW,9.2,-,N/A,,Clear,290,2013-01-03 17:52:00
12:52 PM,39.9,26.1,58,30.43,10.0,West,5.8,-,N/A,,Clear,280,2013-01-03 18:52:00
1:52 PM,42.1,25.0,51,30.41,10.0,NW,10.4,-,N/A,,Mostly Cloudy,310,2013-01-03 19:52:00
2:52 PM,41.0,26.1,55,30.42,10.0,NNW,9.2,-,N/A,,Clear,330,2013-01-03 20:52:00
3:52 PM,37.0,26.1,65,30.43,10.0,NNW,9.2,-,N/A,,Overcast,330,2013-01-03 21:52:00
4:52 PM,35.1,25.0,67,30.45,10.0,NNW,5.8,-,N/A,,Overcast,330,2013-01-03 22:52:00
5:52 PM,33.1,24.1,70,30.46,10.0,WNW,3.5,-,N/A,,Overcast,290,2013-01-03 23:52:00
6:52 PM,28.9,21.9,75,30.47,10.0,NW,4.6,-,N/A,,Mostly Cloudy,320,2013-01-04 00:52:00
7:52 PM,26.1,21.0,81,30.48,10.0,NW,4.6,-,N/A,,Clear,320,2013-01-04 01:52:00
8:52 PM,21.9,19.0,89,30.48,10.0,Calm,Calm,-,N/A,,Clear,0,2013-01-04 02:52:00
9:52 PM,19.9,16.0,85,30.47,10.0,Calm,Calm,-,N/A,,Clear,0,2013-01-04 03:52:00
10:52 PM,18.0,14.0,84,30.47,9.0,Calm,Calm,-,N/A,,Clear,0,2013-01-04 04:52:00